Racecast

Lucy Conlan

Temperance Bedford (MI) · 9 · SECMI D1MONROE · Compare head to head

Athlete rating 109.5 2020 XC season
Best race 121.0 XC
Races 37
Seasons 4 2017 — 2020

RankedNation #43693·MI #4152·MI D1 #2253·SEC #209·Team #97 ?

Rating scale ?

Cross Country

2020 XC 101.1

Temperance Bedford (MI) · Grade 9

Date Meet Event Result Place Rating Difficulty PR/SR Flags
2020-10-17 Indian Creek OFFICIAL 5000m 25:00.5 47th · 9th on team 108.7 +0.039 ★PR ★CR SR CSR RSR
2020-10-10 Indian Creek OFFICIAL 5000m 27:28.9 32nd · 20th on team 100.9 +0.039
2020-10-03 Indian Creek OFFICIAL 5000m 25:37.1 27th · 22nd on team 105.9 +0.039
2020-09-26 Indian Creek OFFICIAL 5000m 28:24.6 40th · 16th on team 97.6 +0.039
2020-09-19 Indian Creek OFFICIAL 5000m 25:12 24th · 17th on team 107.5 +0.039 PR CR SR CSR RSR
2020-09-12 Whiteford Valley Golf Club 5000m 27:29.2 112th · 18th on team 93.5 -0.032 PR ★CR SR CSR
2020-08-29 Indian Creek OFFICIAL 5000m 27:54 15th · 15th on team 98.2 +0.039 PR CR SR CSR RSR
2020-08-22 Indian Creek OFFICIAL 5000m 28:35 13th · 13th on team 96.6 +0.039 PR CR SR CSR RSR

2019 XC 108.6

Temperance Bedford (MI) · Grade 8

Date Meet Event Result Place Rating Difficulty PR/SR Flags
2019-10-19 Huron Meadows Metropark OFFICIAL 3200m 15:40.4 69th · 4th on team 121.0 +0.031 ★PR ★CR ★R SR CSR RSR
2019-10-12 Munson Park 3200m 16:35.4 61st · 13th on team 115.0 +0.034 CSR
2019-10-09 Indian Creek OFFICIAL 3200m 15:58 27th · 5th on team 120.2 +0.038 ★CR R SR CSR RSR
2019-09-28 Lake Erie Metro Park OFFICIAL 3218m 17:16.2 103rd · 18th on team 110.1 +0.034 SR CSR
2019-09-24 Hudson Mills Metropark - OFFICIAL 3218m 17:29.3 42nd · 12th on team 114.1 +0.062 SR CSR RSR
2019-09-14 Ottawa Park Golf Course 3200m 16:37.5 54th · 17th on team 107.2 -0.037 ★CR SR CSR RSR
2019-09-07 Hedges Boyer Park 2253m 17:15.6 212th · 7th on team 72.4 ★PR ★CR SR CSR RSR

2018 XC 112.1

Temperance Bedford (MI) · Grade 7

Date Meet Event Result Place Rating Difficulty PR/SR Flags
2018-10-13 Munson Park 3200m 15:42.6 54th · 20th on team 120.0 +0.034 PR ★CR R SR CSR RSR
2018-10-10 Saline High School 3200m 15:56 27th · 10th on team 119.1 +0.016 PR ★CR SR CSR
2018-10-06 Munson Park 3218m 16:06.4 46th · 16th on team 119.8 +0.034 ★CR R CSR RSR
2018-09-29 Lake Erie Metro Park OFFICIAL 3218m 15:58.1 92nd · 18th on team 119.5 +0.034 ★PR ★CR R SR CSR RSR
2018-09-25 Hudson Mills Metropark - OFFICIAL 3218m 16:59.1 18th · 9th on team 115.0 +0.062 ★CR CSR
2018-09-22 Maumee Bay State Park 3200m 16:36.6 91st · 13th on team 105.8 -0.033 PR ★CR SR CSR
2018-09-15 Ottawa Park Golf Course 3200m 17:03.3 44th · 21st on team 104.7 -0.037 CR CSR
2018-09-12 Tecumseh HS 3218m 16:02.2 33rd · 16th on team 118.3 +0.036 PR ★CR R SR CSR RSR
2018-09-08 Hedges Boyer Park 3200m 16:39.4 101st · 8th on team 101.2 -0.089 PR ★CR SR CSR RSR
2018-08-30 Eastwood HS 3200m 17:41 80th · 17th on team 97.9 -0.060 ★CR SR CSR RSR

2017 XC 108.1

Temperance Bedford (MI) · Grade 6

Date Meet Event Result Place Rating Difficulty PR/SR Flags
2017-10-21 Hudson Mills Metropark - OFFICIAL 3218m 17:24.4 76th · 17th on team 113.2 +0.062 PR CR R SR CSR RSR
2017-10-11 Huron Meadows Metropark OFFICIAL 3200m 17:20.4 50th · 19th on team 110.4 +0.031 PR CR R SR CSR RSR
2017-09-30 Lake Erie Metro Park OFFICIAL 3218m 18:21.8 165th · 28th on team 103.1 +0.034 CR CSR
2017-09-28 Hudson Mills Metropark - OFFICIAL 3218m 17:46.3 62nd · 20th on team 108.7 +0.062 PR CR R SR CSR RSR
2017-09-13 Indian Creek OFFICIAL 3200m 18:02.6 50th · 19th on team 105.2 +0.038 PR CR R SR CSR RSR

Track & Field

2019 TF

Temperance Bedford (MI) · Grade 7

Date Meet Event Result Place Rating Difficulty PR/SR Flags
2019-05-13 Lincoln MS @ Bedford MS lj 29-06.00 -0.033
2019-05-13 Lincoln MS @ Bedford MS 100m 17.52 34th · 14th on team -0.033 ★PR SR
2019-05-06 Ypsilanti MS @ Bedford lj 8-07.00 -0.033
2019-05-02 Bedford MS @ Monroe MS lj 6' 2" -0.032
2019-05-02 Bedford MS @ Monroe MS 200m 37.01 11th · 6th on team -0.032
2019-04-22 SEC-MS: Adrian @ Bedford lj 7-04.00 -0.033
2019-04-22 SEC-MS: Adrian @ Bedford 200m 35.77 12th · 8th on team -0.033 ★PR SR